createdAt,value
2018-01-23T06:22:26.071Z,0.1
2018-01-23T06:24:25.843Z,0.2
2018-01-23T06:25:25.847Z,0.3
2018-01-23T06:27:26.077Z,0.4
2018-01-23T06:28:25.843Z,0.5
2018-01-23T06:30:25.812Z,0.6
2018-01-23T06:31:25.847Z,0.7
2018-01-23T06:33:26.097Z,0.9
2018-01-23T06:34:25.848Z,1.0
2018-01-23T06:35:25.844Z,1.2
2018-01-23T06:36:25.844Z,1.4
2018-01-23T06:37:25.815Z,1.6
2018-01-23T06:38:26.128Z,1.8
2018-01-23T06:39:25.850Z,2.1
2018-01-23T06:40:25.847Z,2.4
2018-01-23T06:41:25.849Z,2.7
2018-01-23T06:42:26.120Z,3.1
2018-01-23T06:43:26.079Z,3.7
2018-01-23T06:44:25.869Z,4.3
2018-01-23T06:45:25.848Z,5.0
2018-01-23T06:46:25.849Z,5.9
2018-01-23T06:47:25.849Z,6.9
2018-01-23T06:48:26.095Z,7.9
2018-01-23T06:49:26.100Z,9.2
2018-01-23T06:50:25.849Z,10.6
2018-01-23T06:51:25.851Z,12.2
2018-01-23T06:52:25.852Z,13.9
2018-01-23T06:53:26.092Z,16.0
2018-01-23T06:54:25.857Z,18.4
2018-01-23T06:55:25.853Z,21.1
2018-01-23T06:56:25.852Z,24.4
2018-01-23T06:57:25.850Z,28.5
2018-01-23T06:58:26.133Z,33.8
2018-01-23T06:59:25.854Z,40.2
2018-01-23T07:00:25.850Z,47.7
2018-01-23T07:01:25.849Z,57.0
2018-01-23T07:02:25.851Z,69.5
2018-01-23T07:03:26.088Z,86.1
2018-01-23T07:04:25.883Z,105.4
2018-01-23T07:05:25.852Z,126.7
2018-01-23T07:06:25.853Z,150.4
2018-01-23T07:07:25.852Z,177.4
2018-01-23T07:08:26.641Z,210.1
2018-01-23T07:09:25.857Z,249.5
2018-01-23T07:10:25.856Z,296.4
2018-01-23T07:11:25.853Z,348.4
2018-01-23T07:12:25.860Z,407.2
2018-01-23T07:14:26.075Z,480.1
2018-01-23T07:15:25.839Z,557.9
2018-01-23T07:16:25.811Z,638.3
2018-01-23T07:17:25.840Z,725.2
2018-01-23T07:18:25.840Z,818.5
2018-01-23T07:19:26.093Z,916.9
2018-01-23T07:20:25.842Z,1021.1
2018-01-23T07:21:25.853Z,1131.9
2018-01-23T07:22:25.849Z,1244.8
2018-01-23T07:23:25.846Z,1360.3
2018-01-23T07:24:26.115Z,1481.5
2018-01-23T07:25:25.849Z,1595.7
2018-01-23T07:26:25.845Z,1697.9
2018-01-23T07:27:25.868Z,1799.4
2018-01-23T07:28:25.846Z,1883.8
2018-01-23T07:29:26.070Z,1963.1
2018-01-23T07:30:25.818Z,2039.5
2018-01-23T07:31:25.851Z,2119.3
2018-01-23T07:32:25.881Z,2198.7
2018-01-23T07:33:25.847Z,2269.8
2018-01-23T07:34:26.054Z,2325.9
2018-01-23T07:35:25.849Z,2393.2
2018-01-23T07:36:25.849Z,2478.5
2018-01-23T07:37:25.878Z,2571.3
2018-01-23T07:38:25.852Z,2659.5
2018-01-23T07:39:26.059Z,2746.2
2018-01-23T07:40:26.878Z,2863.6
2018-01-23T07:41:25.849Z,3007.7
2018-01-23T07:42:25.885Z,3165.9
2018-01-23T07:43:25.855Z,3360.1
2018-01-23T07:44:26.114Z,3574.3
2018-01-23T07:45:25.852Z,3811.8
2018-01-23T07:46:26.880Z,4076.1
2018-01-23T07:47:25.888Z,4391.5
2018-01-23T07:48:25.866Z,4747.3
2018-01-23T07:49:26.118Z,5103.7
2018-01-23T07:50:25.854Z,5422.7
2018-01-23T07:51:25.852Z,5728.4
2018-01-23T07:52:25.887Z,6033.8
2018-01-23T07:53:25.861Z,6341.3
2018-01-23T07:54:26.060Z,6652.9
2018-01-23T07:55:25.850Z,6955.0
2018-01-23T07:56:25.851Z,7238.1
2018-01-23T07:57:25.889Z,7533.6
2018-01-23T07:58:25.883Z,7819.8
2018-01-23T07:59:26.058Z,8082.1
2018-01-23T08:00:25.860Z,8307.4
2018-01-23T08:01:25.858Z,8466.2
2018-01-23T08:02:25.882Z,8558.5
2018-01-23T08:03:25.859Z,8620.3
2018-01-23T08:04:26.064Z,8700.1
2018-01-23T08:05:25.854Z,8829.8
2018-01-23T08:06:25.856Z,9046.0
2018-01-23T08:07:25.885Z,9250.0
2018-01-23T08:08:25.826Z,9424.5
2018-01-23T08:09:26.110Z,9579.5
2018-01-23T08:10:25.862Z,9676.5
2018-01-23T08:11:25.853Z,9752.0
2018-01-23T08:12:25.883Z,9858.8
2018-01-23T08:13:25.852Z,9964.5
2018-01-23T08:14:26.022Z,10029.7
2018-01-23T08:15:25.858Z,10105.5
2018-01-23T08:16:25.827Z,10225.0
2018-01-23T08:17:25.885Z,10324.1
2018-01-23T08:18:25.853Z,10393.4
2018-01-23T08:19:26.065Z,10459.4
2018-01-23T08:21:25.839Z,10603.1
2018-01-23T08:22:25.874Z,10706.3
2018-01-23T08:23:25.841Z,10868.8
2018-01-23T08:24:25.839Z,11106.3
2018-01-23T08:25:26.317Z,11425.0
2018-01-23T08:26:25.838Z,11823.3
2018-01-23T08:27:25.878Z,12293.0
2018-01-23T08:28:25.802Z,12696.7
2018-01-23T08:29:25.837Z,13061.7
2018-01-23T08:30:26.047Z,13390.1
2018-01-23T08:31:26.871Z,13617.5
2018-01-23T08:32:25.869Z,13717.9
2018-01-23T08:33:25.841Z,13818.7
2018-01-23T08:34:25.838Z,13971.1
2018-01-23T08:35:25.950Z,14174.4
2018-01-23T08:36:25.839Z,14264.9
2018-01-23T08:37:25.878Z,14329.7
2018-01-23T08:38:25.836Z,14416.1
2018-01-23T08:39:25.836Z,14544.7
2018-01-23T08:40:26.012Z,14604.2
2018-01-23T08:41:25.841Z,14620.1
2018-01-23T08:42:25.871Z,14693.9
2018-01-23T08:43:25.837Z,14902.7
2018-01-23T08:44:25.804Z,15305.8
2018-01-23T08:45:26.053Z,15854.9
2018-01-23T08:46:25.811Z,16427.7
2018-01-23T08:47:25.838Z,17101.9
2018-01-23T08:48:25.844Z,17737.4
2018-01-23T08:49:25.840Z,18229.9
2018-01-23T08:50:26.068Z,18840.1
2018-01-23T08:51:25.840Z,19835.7
2018-01-23T08:52:25.871Z,21030.7
2018-01-23T08:53:25.810Z,22099.0
2018-01-23T08:54:25.842Z,23057.3
2018-01-23T08:55:26.044Z,24032.5
2018-01-23T08:56:25.848Z,25100.4
2018-01-23T08:57:25.876Z,26180.7
2018-01-23T08:58:25.815Z,27276.5
2018-01-23T08:59:25.842Z,28263.2
2018-01-23T09:00:27.976Z,29116.2
2018-01-23T09:01:25.850Z,30026.5
2018-01-23T09:02:25.869Z,30865.1
2018-01-23T09:03:25.848Z,31743.5
2018-01-23T09:04:25.849Z,32706.2
2018-01-23T09:05:26.047Z,33500.0
2018-01-23T09:06:25.880Z,33910.1
2018-01-23T09:07:25.844Z,34173.6
2018-01-23T09:08:25.809Z,34629.5
2018-01-23T09:09:25.842Z,35176.3
2018-01-23T09:10:26.050Z,35826.9
2018-01-23T09:11:25.876Z,36442.0
2018-01-23T09:12:25.850Z,36934.7
2018-01-23T09:13:25.846Z,37089.8
2018-01-23T09:14:25.854Z,37103.6
2018-01-23T09:15:26.050Z,37543.0
2018-01-23T09:16:25.885Z,38298.7
2018-01-23T09:17:25.847Z,39262.3
2018-01-23T09:18:25.846Z,40268.1
2018-01-23T09:19:25.853Z,41208.3
2018-01-23T09:20:31.056Z,42261.9
2018-01-23T09:21:25.881Z,43462.0
2018-01-23T09:22:25.850Z,44734.2
2018-01-23T09:23:25.854Z,46047.7
2018-01-23T09:24:25.851Z,47243.9
2018-01-23T09:25:26.054Z,48383.2
2018-01-23T09:26:25.884Z,49680.7
2018-01-23T09:28:25.842Z,50887.7
2018-01-23T09:29:25.880Z,51893.3
2018-01-23T09:30:26.061Z,52867.3
2018-01-23T09:31:25.877Z,53342.7
2018-01-23T09:32:25.839Z,53382.9
2018-01-23T09:33:25.910Z,53481.7
2018-01-23T09:34:25.837Z,53399.6
2018-01-23T09:35:26.054Z,53262.5
2018-01-23T09:36:25.868Z,53007.7
2018-01-23T09:37:25.841Z,52405.2
2018-01-23T09:38:25.844Z,51689.2
2018-01-23T09:39:25.811Z,50725.4
2018-01-23T09:40:26.043Z,49704.7
2018-01-23T09:41:25.873Z,48421.6
2018-01-23T09:42:25.846Z,46866.3
2018-01-23T09:43:25.842Z,45430.7
2018-01-23T09:44:25.837Z,44389.9
2018-01-23T09:45:26.045Z,43441.5
2018-01-23T09:46:25.867Z,42496.9
2018-01-23T09:47:25.813Z,41607.7
2018-01-23T09:48:30.838Z,40403.3
2018-01-23T09:49:25.843Z,39285.8
2018-01-23T09:50:27.071Z,38174.0
2018-01-23T09:51:25.871Z,36839.5
2018-01-23T09:52:25.842Z,35635.3
2018-01-23T09:53:25.845Z,34454.1
2018-01-23T09:54:25.815Z,33467.6
2018-01-23T09:55:26.055Z,32583.1
2018-01-23T09:56:25.870Z,31734.4
2018-01-23T09:57:25.844Z,30584.7
2018-01-23T09:58:25.838Z,29105.4
2018-01-23T09:59:25.837Z,27981.9
2018-01-23T10:00:27.967Z,26787.5
2018-01-23T10:01:25.870Z,25676.2
2018-01-23T10:02:25.837Z,24678.9
2018-01-23T10:03:25.838Z,23981.1
2018-01-23T10:04:25.840Z,23477.0
2018-01-23T10:05:26.041Z,23299.3
2018-01-23T10:06:25.871Z,23710.8
2018-01-23T10:07:25.843Z,24437.1
2018-01-23T10:08:25.818Z,25042.7
2018-01-23T10:09:25.807Z,25492.9
2018-01-23T10:10:26.059Z,25632.1
2018-01-23T10:11:25.833Z,25848.5
2018-01-23T10:12:25.850Z,26407.2
2018-01-23T10:13:25.841Z,27328.8
2018-01-23T10:14:25.842Z,27977.7
2018-01-23T10:15:26.084Z,28874.6
2018-01-23T10:16:25.841Z,29855.9
2018-01-23T10:17:25.844Z,30723.5
2018-01-23T10:18:25.850Z,31437.5
2018-01-23T10:19:25.846Z,32081.4
2018-01-23T10:20:26.078Z,32461.3
2018-01-23T10:21:25.812Z,32381.4
2018-01-23T10:22:25.841Z,31931.6
2018-01-23T10:23:25.845Z,31446.9
2018-01-23T10:24:25.842Z,31021.3
2018-01-23T10:25:26.104Z,30999.8
2018-01-23T10:26:25.849Z,31061.9
2018-01-23T10:27:25.851Z,31231.1
2018-01-23T10:28:25.850Z,31205.0
2018-01-23T10:29:25.844Z,30964.1
2018-01-23T10:30:26.076Z,30503.6
2018-01-23T10:31:25.883Z,29973.7
2018-01-23T10:33:25.835Z,29748.3
2018-01-23T10:34:25.834Z,29586.8
2018-01-23T10:35:26.079Z,29480.3
2018-01-23T10:36:25.830Z,29504.1
2018-01-23T10:37:25.834Z,29650.8
2018-01-23T10:38:25.809Z,29925.2
2018-01-23T10:39:25.837Z,30184.5
2018-01-23T10:40:26.041Z,30327.3
2018-01-23T10:41:25.841Z,30439.7
2018-01-23T10:42:25.833Z,30648.1
2018-01-23T10:43:25.835Z,30738.9
2018-01-23T10:44:25.837Z,30955.5
2018-01-23T10:45:26.073Z,31195.8
2018-01-23T10:46:25.834Z,31366.4
2018-01-23T10:47:25.833Z,31531.5
2018-01-23T10:48:25.842Z,31357.4
2018-01-23T10:49:25.838Z,31055.1
2018-01-23T10:50:26.069Z,30706.5
2018-01-23T10:51:25.834Z,30430.2
2018-01-23T10:52:25.811Z,29989.4
2018-01-23T10:53:25.844Z,29562.7
2018-01-23T10:54:25.850Z,29315.7
2018-01-23T10:55:26.073Z,29154.2
2018-01-23T10:56:25.809Z,28907.7
2018-01-23T10:57:25.804Z,28543.0
2018-01-23T10:58:25.839Z,28257.5
2018-01-23T10:59:25.847Z,28012.6
2018-01-23T11:00:28.194Z,27899.8
2018-01-23T11:01:25.835Z,27916.5
2018-01-23T11:02:25.840Z,27958.3
2018-01-23T11:03:25.837Z,28071.2
2018-01-23T11:04:25.837Z,28296.4
2018-01-23T11:05:26.058Z,28604.1
2018-01-23T11:06:25.867Z,28716.7
2018-01-23T11:07:25.839Z,29034.5
2018-01-23T11:08:25.808Z,29255.0
2018-01-23T11:09:25.807Z,29392.5
2018-01-23T11:10:26.042Z,29592.1
2018-01-23T11:11:25.870Z,29752.1
2018-01-23T11:12:25.839Z,29967.6
2018-01-23T11:13:25.839Z,30022.9
2018-01-23T11:14:25.847Z,30086.9
2018-01-23T11:15:26.052Z,30173.1
2018-01-23T11:16:25.874Z,30408.9
2018-01-23T11:17:25.838Z,30687.9
2018-01-23T11:18:25.841Z,31215.7
2018-01-23T11:19:25.842Z,31678.7
2018-01-23T11:20:26.045Z,31940.8
2018-01-23T11:21:26.965Z,32244.9
2018-01-23T11:22:25.845Z,32418.5
2018-01-23T11:23:25.844Z,32740.7
2018-01-23T11:24:25.839Z,33200.6
2018-01-23T11:25:26.069Z,33648.5
2018-01-23T11:26:25.874Z,34055.5
2018-01-23T11:27:25.840Z,34490.0
2018-01-23T11:28:25.841Z,34878.5
2018-01-23T11:29:25.842Z,35431.5
2018-01-23T11:30:26.048Z,36011.1
2018-01-23T11:31:25.870Z,36494.7
2018-01-23T11:32:25.841Z,37070.1
2018-01-23T11:33:25.839Z,37708.9
2018-01-23T11:34:25.871Z,38629.7
2018-01-23T11:35:26.045Z,39732.5
2018-01-23T11:36:25.841Z,40829.3
2018-01-23T11:37:25.843Z,41971.5
2018-01-23T11:38:25.843Z,43279.3
2018-01-23T11:39:25.866Z,44283.3
2018-01-23T11:40:26.013Z,44945.9
2018-01-23T11:42:25.829Z,44571.9
2018-01-23T11:43:25.803Z,43866.3
2018-01-23T11:44:25.861Z,43245.5
2018-01-23T11:45:25.840Z,42363.6
2018-01-23T11:46:26.032Z,41407.9
2018-01-23T11:47:25.829Z,40340.9
2018-01-23T11:48:25.832Z,39164.7
2018-01-23T11:49:25.834Z,37872.7
2018-01-23T11:50:30.834Z,36385.7
2018-01-23T11:51:26.037Z,34728.7
2018-01-23T11:52:25.836Z,33117.6
2018-01-23T11:53:25.828Z,31502.7
2018-01-23T11:54:25.829Z,29739.4
2018-01-23T11:55:30.830Z,28173.4
2018-01-23T11:56:26.043Z,27164.8
2018-01-23T11:57:25.830Z,27653.1
2018-01-23T11:58:25.830Z,28484.6
2018-01-23T11:59:25.833Z,29147.7
2018-01-23T12:00:25.861Z,29767.5
2018-01-23T12:01:26.040Z,30542.0
2018-01-23T12:02:25.839Z,31439.8
2018-01-23T12:03:25.859Z,32470.4
2018-01-23T12:04:25.838Z,33650.9
2018-01-23T12:05:25.859Z,34768.5
2018-01-23T12:06:26.039Z,35948.9
2018-01-23T12:07:25.835Z,36652.1
2018-01-23T12:08:25.833Z,37373.3
2018-01-23T12:09:25.866Z,38140.0
2018-01-23T12:10:25.832Z,39047.0
2018-01-23T12:11:26.042Z,39938.9
2018-01-23T12:12:25.836Z,40550.5
2018-01-23T12:13:25.837Z,41009.1
2018-01-23T12:14:25.866Z,41182.1
2018-01-23T12:15:25.833Z,41125.6
2018-01-23T12:16:26.003Z,40923.9
2018-01-23T12:17:25.801Z,40384.7
2018-01-23T12:18:25.841Z,39624.5
2018-01-23T12:19:25.868Z,38532.5
2018-01-23T12:20:25.833Z,37494.4
2018-01-23T12:21:26.045Z,36281.3
2018-01-23T12:22:25.836Z,35523.7
2018-01-23T12:23:25.834Z,34828.6
2018-01-23T12:24:25.873Z,33995.4
2018-01-23T12:25:25.836Z,32965.7
2018-01-23T12:26:26.076Z,31819.3
2018-01-23T12:27:25.838Z,30806.8
2018-01-23T12:28:25.837Z,29845.1
2018-01-23T12:29:25.884Z,29323.1
2018-01-23T12:30:25.882Z,29067.2
2018-01-23T12:31:26.047Z,28642.8
2018-01-23T12:32:25.841Z,28412.5
2018-01-23T12:33:25.840Z,28254.3
2018-01-23T12:34:25.847Z,28092.0
2018-01-23T12:35:25.867Z,28066.9
2018-01-23T12:36:26.051Z,28060.6
2018-01-23T12:37:25.840Z,28216.4
2018-01-23T12:38:25.841Z,28446.5
2018-01-23T12:39:26.870Z,28613.4
2018-01-23T12:40:25.870Z,29079.7
2018-01-23T12:41:26.043Z,29610.7
2018-01-23T12:42:25.841Z,30473.4
2018-01-23T12:43:25.842Z,31822.8
2018-01-23T12:44:25.813Z,32932.0
2018-01-23T12:46:26.180Z,34538.3
2018-01-23T12:47:25.823Z,36038.2
2018-01-23T12:48:25.824Z,37303.8
2018-01-23T12:49:25.838Z,38323.9
2018-01-23T12:50:25.829Z,39246.7
2018-01-23T12:51:31.074Z,39914.2
2018-01-23T12:52:25.827Z,40670.2
2018-01-23T12:53:30.837Z,41431.7
2018-01-23T12:54:25.824Z,42101.7
2018-01-23T12:55:26.857Z,43155.6
2018-01-23T12:56:31.110Z,44441.0
2018-01-23T12:57:25.830Z,45533.3
2018-01-23T12:58:26.861Z,45805.6
2018-01-23T12:59:25.830Z,45884.5
2018-01-23T13:00:25.803Z,46278.8
2018-01-23T13:01:26.041Z,46440.1
2018-01-23T13:02:25.854Z,47492.9
2018-01-23T13:03:25.830Z,48858.2
2018-01-23T13:04:25.826Z,50469.1
2018-01-23T13:05:25.830Z,52213.7
2018-01-23T13:06:26.294Z,54004.4
2018-01-23T13:07:25.851Z,55851.8
2018-01-23T13:08:25.827Z,57541.9
2018-01-23T13:09:25.802Z,59182.7
2018-01-23T13:10:25.829Z,60511.7
2018-01-23T13:11:26.075Z,61340.7
2018-01-23T13:12:25.871Z,62156.7
2018-01-23T13:13:26.853Z,63249.6
2018-01-23T13:14:25.826Z,64074.1
2018-01-23T13:15:25.832Z,64906.9
2018-01-23T13:16:26.103Z,65535.0
2018-01-23T13:28:25.926Z,64985.1
2018-01-23T13:29:26.080Z,64772.2
2018-01-23T13:30:25.836Z,64451.2
2018-01-23T13:31:25.837Z,64150.1
2018-01-23T13:35:26.111Z,64025.2
2018-01-23T13:36:25.832Z,63750.5
2018-01-23T13:39:25.837Z,63638.5
2018-01-23T13:40:26.061Z,63362.4
2018-01-23T13:43:25.862Z,63608.6
2018-01-23T13:44:25.842Z,63657.4
2018-01-23T13:46:26.121Z,63217.7
2018-01-23T13:47:25.853Z,62341.2
2018-01-23T13:48:26.849Z,61203.9
2018-01-23T13:49:25.818Z,60116.7
2018-01-23T13:50:25.818Z,59282.1
2018-01-23T13:51:27.117Z,58671.7
2018-01-23T13:52:25.852Z,57949.3
2018-01-23T13:53:25.830Z,56597.1
2018-01-23T13:54:25.817Z,55108.9
2018-01-23T13:55:25.791Z,53606.3
2018-01-23T13:56:26.025Z,52174.5
2018-01-23T13:57:25.851Z,50316.9
2018-01-23T13:58:25.791Z,48303.5
2018-01-23T13:59:25.816Z,46405.5
2018-01-23T14:00:25.820Z,44309.5
2018-01-23T14:01:31.042Z,42763.6
2018-01-23T14:02:25.850Z,41557.1
2018-01-23T14:03:25.824Z,40308.7
2018-01-23T14:04:25.790Z,38982.3
2018-01-23T14:05:25.836Z,37350.6
2018-01-23T14:06:27.130Z,35600.1
2018-01-23T14:07:30.897Z,34086.9
2018-01-23T14:08:25.826Z,33012.8
2018-01-23T14:09:25.796Z,32080.0
2018-01-23T14:10:25.838Z,31272.2
2018-01-23T14:11:26.032Z,30527.5
2018-01-23T14:12:25.830Z,29853.7
2018-01-23T14:13:25.859Z,29252.7
2018-01-23T14:14:25.824Z,28793.7
2018-01-23T14:15:25.826Z,28365.4
2018-01-23T14:16:26.030Z,27959.1
2018-01-23T14:17:25.829Z,27600.7
2018-01-23T14:18:25.926Z,27188.2
2018-01-23T14:19:25.822Z,26673.5
2018-01-23T14:20:25.801Z,26115.3
2018-01-23T14:21:26.038Z,25557.5
2018-01-23T14:22:25.838Z,25033.5
2018-01-23T14:23:25.857Z,24403.2
2018-01-23T14:24:26.863Z,23729.9
2018-01-23T14:25:25.827Z,22941.9
2018-01-23T14:26:31.076Z,22078.9
2018-01-23T14:27:25.827Z,21229.9
2018-01-23T14:28:25.861Z,20468.7
2018-01-23T14:29:30.831Z,19764.6
2018-01-23T14:30:25.827Z,19071.1
2018-01-23T14:31:26.028Z,18378.1
2018-01-23T14:32:25.829Z,17705.7
2018-01-23T14:33:25.857Z,17073.1
2018-01-23T14:34:25.859Z,16555.5
2018-01-23T14:35:25.829Z,16107.8
2018-01-23T14:36:26.043Z,15654.4
2018-01-23T14:37:25.839Z,15169.8
2018-01-23T14:38:25.861Z,14666.1
2018-01-23T14:39:25.829Z,14186.9
2018-01-23T14:40:25.839Z,13807.7
2018-01-23T14:41:26.052Z,13528.0
2018-01-23T14:42:25.833Z,13335.0
2018-01-23T14:43:25.871Z,13129.8
2018-01-23T14:44:25.831Z,12867.1
2018-01-23T14:45:25.834Z,12551.6
2018-01-23T14:46:26.037Z,12218.6
2018-01-23T14:47:25.841Z,11873.2
2018-01-23T14:48:25.868Z,11533.0
2018-01-23T14:49:25.835Z,11202.1
2018-01-23T14:50:25.838Z,10924.5
2018-01-23T14:51:26.066Z,10706.5
2018-01-23T14:52:25.890Z,10523.2
2018-01-23T14:53:25.868Z,10388.3
2018-01-23T14:54:25.834Z,10291.0
2018-01-23T14:55:25.842Z,10218.4
2018-01-23T14:56:26.020Z,10102.1
2018-01-23T14:57:25.841Z,9912.7
2018-01-23T14:58:25.865Z,9691.6
2018-01-23T14:59:25.835Z,9479.1
2018-01-23T15:00:25.842Z,9306.3
2018-01-23T15:01:31.039Z,9146.6
2018-01-23T15:02:25.862Z,8968.3
2018-01-23T15:03:25.868Z,8794.5
2018-01-23T15:04:25.835Z,8630.9
2018-01-23T15:05:25.841Z,8426.9
2018-01-23T15:06:26.039Z,8167.5
2018-01-23T15:08:25.859Z,7881.5
2018-01-23T15:09:25.828Z,7578.9
2018-01-23T15:10:25.822Z,7245.8
2018-01-23T15:11:25.831Z,6895.5
2018-01-23T15:12:26.022Z,6581.2
2018-01-23T15:13:25.861Z,6292.9
2018-01-23T15:14:25.824Z,6023.9
2018-01-23T15:15:25.821Z,5777.5
2018-01-23T15:16:25.795Z,5547.8
2018-01-23T15:17:26.031Z,5339.5
2018-01-23T15:18:25.854Z,5171.7
2018-01-23T15:19:25.823Z,5004.9
2018-01-23T15:20:25.832Z,4820.5
2018-01-23T15:21:25.794Z,4633.3
2018-01-23T15:22:27.087Z,4458.1
2018-01-23T15:23:25.859Z,4283.0
2018-01-23T15:24:25.831Z,4103.7
2018-01-23T15:25:25.827Z,3916.8
2018-01-23T15:26:25.832Z,3727.9
2018-01-23T15:27:26.122Z,3550.9
2018-01-23T15:28:25.859Z,3399.8
2018-01-23T15:29:25.825Z,3268.5
2018-01-23T15:30:30.833Z,3159.9
2018-01-23T15:31:25.834Z,3067.7
2018-01-23T15:32:26.099Z,2971.1
2018-01-23T15:33:25.853Z,2861.9
2018-01-23T15:34:25.831Z,2746.3
2018-01-23T15:35:25.845Z,2632.6
2018-01-23T15:36:25.828Z,2523.0
2018-01-23T15:37:26.036Z,2409.8
2018-01-23T15:38:25.864Z,2299.2
2018-01-23T15:39:25.826Z,2193.5
2018-01-23T15:40:35.831Z,2094.2
2018-01-23T15:41:25.828Z,1998.2
2018-01-23T15:42:26.066Z,1897.9
2018-01-23T15:43:25.859Z,1791.1
2018-01-23T15:44:26.067Z,1677.1
2018-01-23T15:45:25.830Z,1548.5
2018-01-23T15:46:25.828Z,1410.3
2018-01-23T15:47:26.041Z,1278.7
2018-01-23T15:48:25.862Z,1156.1
2018-01-23T15:49:25.829Z,1043.1
2018-01-23T15:50:25.829Z,940.3
2018-01-23T15:51:25.798Z,847.7
2018-01-23T15:52:31.040Z,764.1
2018-01-23T15:53:25.868Z,689.3
2018-01-23T15:54:25.840Z,621.1
2018-01-23T15:55:25.804Z,557.9
2018-01-23T15:56:25.829Z,499.9
2018-01-23T15:57:26.061Z,446.9
2018-01-23T15:58:25.832Z,398.5
2018-01-23T15:59:25.829Z,356.3
2018-01-23T16:00:25.868Z,320.4
2018-01-23T16:01:25.838Z,290.8
2018-01-23T16:02:26.070Z,265.1
2018-01-23T16:03:25.834Z,241.1
2018-01-23T16:04:25.836Z,218.1
2018-01-23T16:05:25.868Z,195.7
2018-01-23T16:07:26.026Z,173.7
2018-01-23T16:08:25.827Z,154.2
2018-01-23T16:09:25.819Z,136.9
2018-01-23T16:10:25.852Z,121.4
2018-01-23T16:11:25.821Z,108.0
2018-01-23T16:12:31.030Z,96.2
2018-01-23T16:13:25.824Z,85.1
2018-01-23T16:14:25.830Z,75.0
2018-01-23T16:15:25.995Z,65.8
2018-01-23T16:16:25.830Z,57.4
2018-01-23T16:17:26.032Z,49.3
2018-01-23T16:18:25.800Z,42.1
2018-01-23T16:19:25.841Z,36.1
2018-01-23T16:20:25.854Z,30.9
2018-01-23T16:21:25.830Z,26.3
2018-01-23T16:22:31.034Z,23.1
2018-01-23T16:23:25.860Z,20.4
2018-01-23T16:24:25.850Z,17.9
2018-01-23T16:25:25.830Z,15.7
2018-01-23T16:26:25.827Z,13.7
2018-01-23T16:27:26.036Z,12.0
2018-01-23T16:28:25.838Z,10.6
2018-01-23T16:29:25.856Z,9.3
2018-01-23T16:30:25.838Z,8.2
2018-01-23T16:31:25.861Z,7.1
2018-01-23T16:32:26.040Z,6.3
2018-01-23T16:33:25.829Z,5.5
2018-01-23T16:34:25.857Z,4.7
2018-01-23T16:35:25.864Z,4.1
2018-01-23T16:36:30.841Z,3.6
2018-01-23T16:37:26.042Z,3.1
2018-01-23T16:38:25.833Z,2.7
2018-01-23T16:39:25.871Z,2.4
2018-01-23T16:40:25.836Z,2.1
2018-01-23T16:41:25.836Z,1.8
2018-01-23T16:42:26.036Z,1.5
2018-01-23T16:43:25.831Z,1.3
2018-01-23T16:44:25.858Z,1.1
2018-01-23T16:45:25.833Z,0.9
2018-01-23T16:46:25.831Z,0.7
2018-01-23T16:47:26.131Z,0.6
2018-01-23T16:48:25.841Z,0.5
2018-01-23T16:49:25.836Z,0.4
2018-01-23T16:50:25.839Z,0.3
2018-01-23T16:52:26.071Z,0.2
2018-01-23T16:53:25.833Z,0.1
